createdAt,value
2022-12-31T00:01:14.021Z,8.52
2022-12-31T00:03:41.462Z,11.00
2022-12-31T00:06:17.331Z,8.50
2022-12-31T00:08:44.833Z,7.90
2022-12-31T00:11:11.585Z,7.50
2022-12-31T00:13:38.575Z,8.45
2022-12-31T00:16:14.655Z,8.75
2022-12-31T00:18:44.856Z,9.75
2022-12-31T00:21:14.262Z,7.03
2022-12-31T00:23:41.114Z,6.75
2022-12-31T00:26:13.567Z,8.32
2022-12-31T00:28:41.162Z,7.32
2022-12-31T00:31:21.254Z,6.30
2022-12-31T00:33:47.980Z,8.55
2022-12-31T00:36:23.675Z,6.18
2022-12-31T00:38:51.780Z,6.70
2022-12-31T00:41:19.224Z,6.70
2022-12-31T00:43:45.945Z,6.00
2022-12-31T00:46:13.134Z,6.28
2022-12-31T00:48:39.905Z,6.45
2022-12-31T00:51:08.834Z,6.03
2022-12-31T00:53:35.570Z,6.85
2022-12-31T00:56:07.918Z,7.28
2022-12-31T00:58:35.350Z,6.57
2022-12-31T01:01:17.148Z,5.90
2022-12-31T01:03:44.112Z,4.85
2022-12-31T01:06:11.165Z,5.32
2022-12-31T01:08:37.769Z,6.05
2022-12-31T01:11:22.188Z,5.47
2022-12-31T01:14:01.697Z,5.80
2022-12-31T01:16:31.857Z,5.15
2022-12-31T01:18:59.993Z,5.25
2022-12-31T01:21:27.326Z,3.92
2022-12-31T01:23:54.074Z,3.58
2022-12-31T01:26:20.742Z,5.40
2022-12-31T01:28:47.633Z,4.75
2022-12-31T01:31:17.096Z,4.38
2022-12-31T01:33:43.911Z,4.00
2022-12-31T01:36:21.724Z,3.67
2022-12-31T01:38:51.917Z,3.80
2022-12-31T01:41:21.638Z,3.38
2022-12-31T01:43:55.769Z,5.15
2022-12-31T01:46:34.337Z,3.80
2022-12-31T01:49:04.923Z,6.28
2022-12-31T01:51:33.510Z,4.28
2022-12-31T01:54:00.746Z,6.03
2022-12-31T01:56:27.321Z,4.00
2022-12-31T01:58:55.953Z,3.72
2022-12-31T02:01:31.228Z,3.97
2022-12-31T02:03:58.370Z,5.05
2022-12-31T02:06:29.890Z,6.43
2022-12-31T02:08:58.001Z,4.97
2022-12-31T02:11:29.925Z,4.15
2022-12-31T02:16:35.640Z,4.55
2022-12-31T02:19:04.858Z,4.20
2022-12-31T02:22:25.654Z,5.38
2022-12-31T02:25:20.254Z,4.45
2022-12-31T02:28:00.906Z,4.45
2022-12-31T02:30:30.944Z,3.97
2022-12-31T02:33:13.977Z,4.28
2022-12-31T02:35:54.441Z,4.43
2022-12-31T02:38:26.575Z,4.10
2022-12-31T02:40:54.375Z,3.65
2022-12-31T02:43:20.885Z,4.13
2022-12-31T02:45:50.945Z,4.20
2022-12-31T02:48:17.446Z,3.42
2022-12-31T02:51:02.445Z,3.92
2022-12-31T02:53:56.326Z,4.25
2022-12-31T02:56:55.870Z,4.32
2022-12-31T02:59:52.976Z,3.17
2022-12-31T03:02:21.892Z,4.07
2022-12-31T03:04:53.780Z,4.20
2022-12-31T03:07:26.801Z,5.50
2022-12-31T03:09:53.669Z,5.05
2022-12-31T03:12:40.753Z,3.42
2022-12-31T03:15:19.971Z,4.60
2022-12-31T03:17:53.802Z,4.00
2022-12-31T03:20:40.571Z,3.45
2022-12-31T03:23:09.968Z,4.03
2022-12-31T03:25:37.940Z,4.88
2022-12-31T03:28:17.231Z,3.83
2022-12-31T03:30:46.679Z,3.72
2022-12-31T03:33:13.785Z,5.95
2022-12-31T03:35:42.237Z,4.55
2022-12-31T03:38:09.174Z,5.68
2022-12-31T03:40:47.627Z,4.05
2022-12-31T03:43:14.801Z,4.55
2022-12-31T03:45:41.792Z,3.75
2022-12-31T03:48:09.597Z,5.55
2022-12-31T03:50:36.650Z,5.45
2022-12-31T03:53:03.232Z,4.20
2022-12-31T03:55:29.744Z,4.57
2022-12-31T03:57:56.390Z,5.22
2022-12-31T04:00:23.112Z,5.03
2022-12-31T04:02:50.796Z,5.63
2022-12-31T04:05:18.677Z,5.85
2022-12-31T04:07:45.587Z,4.28
2022-12-31T04:10:13.985Z,4.78
2022-12-31T04:12:40.538Z,4.63
2022-12-31T04:15:08.053Z,6.22
2022-12-31T04:17:34.584Z,6.00
2022-12-31T04:20:01.169Z,4.32
2022-12-31T04:22:27.702Z,6.63
2022-12-31T04:24:54.177Z,5.03
2022-12-31T04:27:20.657Z,5.07
2022-12-31T04:29:47.283Z,5.88
2022-12-31T04:32:13.860Z,3.78
2022-12-31T04:34:40.376Z,5.93
2022-12-31T04:37:06.892Z,4.70
2022-12-31T04:39:33.414Z,6.05
2022-12-31T04:41:59.942Z,5.25
2022-12-31T04:44:26.453Z,4.65
2022-12-31T04:46:53.027Z,4.55
2022-12-31T04:49:19.627Z,4.57
2022-12-31T04:51:46.182Z,5.40
2022-12-31T04:54:12.705Z,6.03
2022-12-31T04:56:39.283Z,5.38
2022-12-31T04:59:07.253Z,4.95
2022-12-31T05:01:33.835Z,3.60
2022-12-31T05:04:00.416Z,4.40
2022-12-31T05:06:27.145Z,5.57
2022-12-31T05:08:53.723Z,5.32
2022-12-31T05:11:20.395Z,7.22
2022-12-31T05:13:46.930Z,4.20
2022-12-31T05:16:13.560Z,4.97
2022-12-31T05:18:40.561Z,4.28
2022-12-31T05:21:07.144Z,4.82
2022-12-31T05:23:33.822Z,5.05
2022-12-31T05:26:00.472Z,5.20
2022-12-31T05:28:27.093Z,4.97
2022-12-31T05:30:53.801Z,4.30
2022-12-31T05:33:20.703Z,4.85
2022-12-31T05:35:47.319Z,5.78
2022-12-31T05:38:14.052Z,4.85
2022-12-31T05:40:40.704Z,4.68
2022-12-31T05:43:07.614Z,4.50
2022-12-31T05:45:34.212Z,5.10
2022-12-31T05:48:00.914Z,3.60
2022-12-31T05:50:27.496Z,4.28
2022-12-31T05:52:54.098Z,3.60
2022-12-31T05:55:20.621Z,5.82
2022-12-31T05:57:47.183Z,5.70
2022-12-31T06:00:14.564Z,6.88
2022-12-31T06:02:41.364Z,5.50
2022-12-31T06:05:08.345Z,6.40
2022-12-31T06:07:34.908Z,6.15
2022-12-31T06:10:01.417Z,6.28
2022-12-31T06:12:27.918Z,6.72
2022-12-31T06:14:54.450Z,6.72
2022-12-31T06:17:22.412Z,7.63
2022-12-31T06:19:48.998Z,8.30
2022-12-31T06:22:15.567Z,5.40
2022-12-31T06:24:42.477Z,7.10
2022-12-31T06:27:09.098Z,8.23
2022-12-31T06:29:35.709Z,6.78
2022-12-31T06:32:02.221Z,7.47
2022-12-31T06:34:28.701Z,5.15
2022-12-31T06:36:55.287Z,5.07
2022-12-31T06:39:21.803Z,6.43
2022-12-31T06:41:48.312Z,4.90
2022-12-31T06:44:15.028Z,4.60
2022-12-31T06:46:41.986Z,6.63
2022-12-31T06:49:08.642Z,5.20
2022-12-31T06:51:35.309Z,7.18
2022-12-31T06:54:01.961Z,6.50
2022-12-31T06:56:33.829Z,8.18
2022-12-31T06:59:02.853Z,10.13
2022-12-31T07:01:58.028Z,7.75
2022-12-31T07:04:45.930Z,5.85
2022-12-31T07:07:22.173Z,8.18
2022-12-31T07:10:01.156Z,6.68
2022-12-31T07:12:39.938Z,9.27
2022-12-31T07:15:45.990Z,6.45
2022-12-31T07:18:33.524Z,6.57
2022-12-31T07:21:00.488Z,6.60
2022-12-31T07:23:27.256Z,6.65
2022-12-31T07:26:40.237Z,6.47
2022-12-31T07:29:26.055Z,7.65
2022-12-31T07:32:04.435Z,9.40
2022-12-31T07:35:00.247Z,6.28
2022-12-31T07:37:49.419Z,7.32
2022-12-31T07:40:44.740Z,7.13
2022-12-31T07:43:29.790Z,7.00
2022-12-31T07:46:07.448Z,8.23
2022-12-31T07:48:34.762Z,6.80
2022-12-31T07:51:01.604Z,7.95
2022-12-31T07:53:28.491Z,7.20
2022-12-31T07:55:58.323Z,6.35
2022-12-31T07:58:40.523Z,7.50
2022-12-31T08:01:11.338Z,6.38
2022-12-31T08:03:55.328Z,7.57
2022-12-31T08:06:36.584Z,7.10
2022-12-31T08:09:13.069Z,5.67
2022-12-31T08:11:52.377Z,6.03
2022-12-31T08:14:19.753Z,6.28
2022-12-31T08:16:46.775Z,6.53
2022-12-31T08:19:20.113Z,7.90
2022-12-31T08:22:09.568Z,5.85
2022-12-31T08:25:14.454Z,6.55
2022-12-31T08:28:04.808Z,6.90
2022-12-31T08:31:00.471Z,7.43
2022-12-31T08:33:47.599Z,7.00
2022-12-31T08:36:37.941Z,6.10
2022-12-31T08:39:21.732Z,6.47
2022-12-31T08:41:49.980Z,7.63
2022-12-31T08:44:24.871Z,5.07
2022-12-31T08:47:09.649Z,4.40
2022-12-31T08:49:36.409Z,8.30
2022-12-31T08:52:03.460Z,6.43
2022-12-31T08:54:30.422Z,6.78
2022-12-31T08:57:09.455Z,4.80
2022-12-31T08:59:52.572Z,4.68
2022-12-31T09:02:39.347Z,4.60
2022-12-31T09:05:29.814Z,5.63
2022-12-31T09:08:21.435Z,4.80
2022-12-31T09:10:53.531Z,3.55
2022-12-31T09:13:44.660Z,5.13
2022-12-31T09:16:16.960Z,5.38
2022-12-31T09:18:44.956Z,6.20
2022-12-31T09:21:14.297Z,5.45
2022-12-31T09:23:41.472Z,4.72
2022-12-31T09:26:41.197Z,3.90
2022-12-31T09:29:38.836Z,4.75
2022-12-31T09:32:20.478Z,5.22
2022-12-31T09:34:55.453Z,7.75
2022-12-31T09:37:38.024Z,5.05
2022-12-31T09:40:23.056Z,4.85
2022-12-31T09:43:08.028Z,5.25
2022-12-31T09:45:40.603Z,6.15
2022-12-31T09:48:25.748Z,4.13
2022-12-31T09:51:25.570Z,6.00
2022-12-31T09:54:19.812Z,6.88
2022-12-31T09:56:58.874Z,4.72
2022-12-31T09:59:33.713Z,4.53
2022-12-31T10:02:11.901Z,4.05
2022-12-31T10:04:57.365Z,4.13
2022-12-31T10:07:50.509Z,4.30
2022-12-31T10:10:38.793Z,3.75
2022-12-31T10:13:14.828Z,7.10
2022-12-31T10:15:53.977Z,4.93
2022-12-31T10:18:57.644Z,5.45
2022-12-31T10:21:58.052Z,4.22
2022-12-31T10:24:49.449Z,5.68
2022-12-31T10:27:37.251Z,5.65
2022-12-31T10:30:13.128Z,3.83
2022-12-31T10:33:07.968Z,5.40
2022-12-31T10:35:58.296Z,5.07
2022-12-31T10:38:55.632Z,5.60
2022-12-31T10:41:24.816Z,5.45
2022-12-31T10:44:03.901Z,7.30
2022-12-31T10:47:07.859Z,7.15
2022-12-31T10:49:54.503Z,5.63
2022-12-31T10:52:41.927Z,8.43
2022-12-31T10:55:27.095Z,6.28
2022-12-31T10:58:15.125Z,7.68
2022-12-31T11:01:12.195Z,6.55
2022-12-31T11:04:09.894Z,6.85
2022-12-31T11:06:58.063Z,7.63
2022-12-31T11:09:49.314Z,6.65
2022-12-31T11:12:34.588Z,6.35
2022-12-31T11:15:16.398Z,6.60
2022-12-31T11:18:12.501Z,5.00
2022-12-31T11:21:00.229Z,5.93
2022-12-31T11:23:38.722Z,5.22
2022-12-31T11:26:41.307Z,5.28
2022-12-31T11:29:23.430Z,4.63
2022-12-31T11:32:04.380Z,4.93
2022-12-31T11:34:47.939Z,5.68
2022-12-31T11:37:17.578Z,5.65
2022-12-31T11:40:01.551Z,5.03
2022-12-31T11:42:37.157Z,5.15
2022-12-31T11:45:22.857Z,4.78
2022-12-31T11:51:16.134Z,4.75
2022-12-31T11:54:01.354Z,4.18
2022-12-31T11:56:34.412Z,4.82
2022-12-31T11:59:04.859Z,5.95
2022-12-31T12:01:53.708Z,4.20
2022-12-31T12:04:20.267Z,3.88
2022-12-31T12:06:47.070Z,3.67
2022-12-31T12:09:16.874Z,3.53
2022-12-31T12:11:43.475Z,4.05
2022-12-31T12:14:20.550Z,3.88
2022-12-31T12:16:47.226Z,3.50
2022-12-31T12:19:18.285Z,3.80
2022-12-31T12:21:48.924Z,3.50
2022-12-31T12:24:26.468Z,3.15
2022-12-31T12:26:53.171Z,3.33
2022-12-31T12:29:32.270Z,3.33
2022-12-31T12:32:12.401Z,2.95
2022-12-31T12:34:44.539Z,2.45
2022-12-31T12:37:26.298Z,2.40
2022-12-31T12:39:56.711Z,2.17
2022-12-31T12:42:23.679Z,2.47
2022-12-31T12:45:01.448Z,2.88
2022-12-31T12:47:28.309Z,2.60
2022-12-31T12:49:55.325Z,3.80
2022-12-31T12:52:37.602Z,3.00
2022-12-31T12:55:27.654Z,3.28
2022-12-31T12:57:57.312Z,2.85
2022-12-31T13:00:29.885Z,3.33
2022-12-31T13:03:27.538Z,2.42
2022-12-31T13:06:06.330Z,4.10
2022-12-31T13:08:43.512Z,3.42
2022-12-31T13:11:29.497Z,3.25
2022-12-31T13:14:18.513Z,2.38
2022-12-31T13:17:25.979Z,2.78
2022-12-31T13:20:25.691Z,3.10
2022-12-31T13:22:55.673Z,3.15
2022-12-31T13:25:38.545Z,2.53
2022-12-31T13:28:08.091Z,2.90
2022-12-31T13:30:46.004Z,2.55
2022-12-31T13:33:37.717Z,2.42
2022-12-31T13:36:15.508Z,2.15
2022-12-31T13:38:46.380Z,2.40
2022-12-31T13:41:24.290Z,2.27
2022-12-31T13:44:16.448Z,1.63
2022-12-31T13:46:49.038Z,2.17
2022-12-31T13:49:31.567Z,1.75
2022-12-31T13:52:29.143Z,2.08
2022-12-31T13:55:13.981Z,1.45
2022-12-31T13:58:07.412Z,4.15
2022-12-31T14:00:41.344Z,1.95
2022-12-31T14:03:19.603Z,2.00
2022-12-31T14:06:02.468Z,2.80
2022-12-31T14:08:29.228Z,2.60
2022-12-31T14:11:04.938Z,2.08
2022-12-31T14:13:43.199Z,1.67
2022-12-31T14:16:24.591Z,2.28
2022-12-31T14:19:02.947Z,2.63
2022-12-31T14:21:29.411Z,1.92
2022-12-31T14:24:27.618Z,2.20
2022-12-31T14:26:58.012Z,2.17
2022-12-31T14:29:35.428Z,2.13
2022-12-31T14:32:01.998Z,1.55
2022-12-31T14:35:07.755Z,2.30
2022-12-31T14:37:58.118Z,3.08
2022-12-31T14:40:46.334Z,1.90
2022-12-31T14:43:32.026Z,1.77
2022-12-31T14:46:14.089Z,1.63
2022-12-31T14:48:45.274Z,1.73
2022-12-31T14:51:12.404Z,2.22
2022-12-31T14:53:39.054Z,2.38
2022-12-31T14:56:24.706Z,1.58
2022-12-31T14:59:01.984Z,2.25
2022-12-31T15:01:29.151Z,2.50
2022-12-31T15:03:58.156Z,2.08
2022-12-31T15:06:24.710Z,1.98
2022-12-31T15:09:15.386Z,2.05
2022-12-31T15:11:47.757Z,2.03
2022-12-31T15:14:17.192Z,3.67
2022-12-31T15:17:12.864Z,2.13
2022-12-31T15:20:04.172Z,2.15
2022-12-31T15:22:40.026Z,2.03
2022-12-31T15:25:30.188Z,3.58
2022-12-31T15:28:01.302Z,3.00
2022-12-31T15:30:48.537Z,2.42
2022-12-31T15:33:39.276Z,2.45
2022-12-31T15:36:21.096Z,3.10
2022-12-31T15:38:48.124Z,3.17
2022-12-31T15:41:36.596Z,2.45
2022-12-31T15:44:14.933Z,2.03
2022-12-31T15:46:42.818Z,2.75
2022-12-31T15:49:18.208Z,2.00
2022-12-31T15:51:49.447Z,2.38
2022-12-31T15:54:36.513Z,2.65
2022-12-31T15:57:09.279Z,2.72
2022-12-31T15:59:38.211Z,2.33
2022-12-31T16:02:04.864Z,2.95
2022-12-31T16:04:35.013Z,2.63
2022-12-31T16:07:02.703Z,2.72
2022-12-31T16:09:31.695Z,2.50
2022-12-31T16:11:59.199Z,3.65
2022-12-31T16:14:42.455Z,3.55
2022-12-31T16:17:28.020Z,3.47
2022-12-31T16:19:55.394Z,3.17
2022-12-31T16:22:39.379Z,4.30
2022-12-31T16:27:54.264Z,3.40
2022-12-31T16:30:23.528Z,3.47
2022-12-31T16:32:50.791Z,2.95
2022-12-31T16:35:24.642Z,3.47
2022-12-31T16:38:14.299Z,4.15
2022-12-31T16:40:43.245Z,4.25
2022-12-31T16:43:27.936Z,4.82
2022-12-31T16:46:16.794Z,3.80
2022-12-31T16:48:48.994Z,3.90
2022-12-31T16:51:21.949Z,5.38
2022-12-31T16:53:49.142Z,4.47
2022-12-31T16:56:24.132Z,4.70
2022-12-31T16:58:56.178Z,6.22
2022-12-31T17:01:28.802Z,5.95
2022-12-31T17:03:58.824Z,6.40
2022-12-31T17:06:27.120Z,5.45
2022-12-31T17:08:54.913Z,6.63
2022-12-31T17:11:31.329Z,7.57
2022-12-31T17:14:07.780Z,7.20
2022-12-31T17:16:35.772Z,7.93
2022-12-31T17:19:02.612Z,6.80
2022-12-31T17:21:31.463Z,7.25
2022-12-31T17:24:01.950Z,6.47
2022-12-31T17:26:31.213Z,7.43
2022-12-31T17:28:58.801Z,6.57
2022-12-31T17:31:37.205Z,8.38
2022-12-31T17:34:12.798Z,7.75
2022-12-31T17:36:54.624Z,8.23
2022-12-31T17:39:22.851Z,7.22
2022-12-31T17:41:51.922Z,8.10
2022-12-31T17:44:21.950Z,7.40
2022-12-31T17:46:49.835Z,7.18
2022-12-31T17:49:16.909Z,8.40
2022-12-31T17:51:47.511Z,8.40
2022-12-31T17:54:15.587Z,8.10
2022-12-31T17:56:42.265Z,8.50
2022-12-31T17:59:08.881Z,8.10
2022-12-31T18:01:35.624Z,9.43
2022-12-31T18:04:02.818Z,8.85
2022-12-31T18:06:29.344Z,9.43
2022-12-31T18:08:57.393Z,8.60
2022-12-31T18:11:24.348Z,9.07
2022-12-31T18:13:50.956Z,9.50
2022-12-31T18:16:17.569Z,8.02
2022-12-31T18:18:45.476Z,8.20
2022-12-31T18:21:30.050Z,9.30
2022-12-31T18:26:23.589Z,8.93
2022-12-31T18:28:50.737Z,8.20
2022-12-31T18:31:19.563Z,8.88
2022-12-31T18:33:47.134Z,7.90
2022-12-31T18:36:15.768Z,9.02
2022-12-31T18:38:42.409Z,10.23
2022-12-31T18:41:22.475Z,8.70
2022-12-31T18:43:49.491Z,9.30
2022-12-31T18:46:18.311Z,8.38
2022-12-31T18:48:45.098Z,9.88
2022-12-31T18:51:29.286Z,10.20
2022-12-31T18:53:58.334Z,10.65
2022-12-31T18:56:25.324Z,8.63
2022-12-31T18:58:52.215Z,9.20
2022-12-31T19:01:27.069Z,10.23
2022-12-31T19:03:55.497Z,8.65
2022-12-31T19:06:22.130Z,8.20
2022-12-31T19:08:48.766Z,8.48
2022-12-31T19:11:15.838Z,8.13
2022-12-31T19:13:42.688Z,7.90
2022-12-31T19:16:09.908Z,7.00
2022-12-31T19:18:36.480Z,7.47
2022-12-31T19:21:03.415Z,8.95
2022-12-31T19:23:29.919Z,7.25
2022-12-31T19:25:56.400Z,7.30
2022-12-31T19:28:25.089Z,6.68
2022-12-31T19:30:52.069Z,7.50
2022-12-31T19:33:18.827Z,7.38
2022-12-31T19:35:45.671Z,7.47
2022-12-31T19:38:20.650Z,7.47
2022-12-31T19:40:47.747Z,6.28
2022-12-31T19:43:15.827Z,6.25
2022-12-31T19:45:43.224Z,7.38
2022-12-31T19:48:16.732Z,7.43
2022-12-31T19:50:45.733Z,8.57
2022-12-31T19:53:15.073Z,7.80
2022-12-31T19:55:42.475Z,8.23
2022-12-31T19:58:15.400Z,8.30
2022-12-31T20:00:41.949Z,10.43
2022-12-31T20:03:10.699Z,8.15
2022-12-31T20:05:37.318Z,7.53
2022-12-31T20:08:04.002Z,9.13
2022-12-31T20:10:30.633Z,7.70
2022-12-31T20:12:57.238Z,8.27
2022-12-31T20:15:23.726Z,8.50
2022-12-31T20:17:50.300Z,10.57
2022-12-31T20:20:16.902Z,8.60
2022-12-31T20:22:43.423Z,6.78
2022-12-31T20:25:10.147Z,6.88
2022-12-31T20:27:36.730Z,7.07
2022-12-31T20:30:03.799Z,8.10
2022-12-31T20:32:32.941Z,7.28
2022-12-31T20:34:59.420Z,7.63
2022-12-31T20:37:25.952Z,8.10
2022-12-31T20:39:52.620Z,8.48
2022-12-31T20:42:19.838Z,7.85
2022-12-31T20:44:46.350Z,7.20
2022-12-31T20:47:12.961Z,6.70
2022-12-31T20:50:09.913Z,7.78
2022-12-31T20:52:26.037Z,6.28
2022-12-31T20:54:52.564Z,7.05
2022-12-31T20:57:19.056Z,7.82
2022-12-31T20:59:45.644Z,8.40
2022-12-31T21:02:29.520Z,8.90
2022-12-31T21:05:02.215Z,9.50
2022-12-31T21:07:28.984Z,9.77
2022-12-31T21:09:55.481Z,8.77
2022-12-31T21:12:40.658Z,8.45
2022-12-31T21:15:07.813Z,9.32
2022-12-31T21:17:34.342Z,9.45
2022-12-31T21:20:00.914Z,10.25
2022-12-31T21:22:27.442Z,8.32
2022-12-31T21:24:54.028Z,9.55
2022-12-31T21:27:20.626Z,9.25
2022-12-31T21:30:17.241Z,8.00
2022-12-31T21:32:33.663Z,9.32
2022-12-31T21:35:40.323Z,8.07
2022-12-31T21:37:59.286Z,9.40
2022-12-31T21:40:27.965Z,8.55
2022-12-31T21:42:54.671Z,9.93
2022-12-31T21:45:21.666Z,7.63
2022-12-31T21:48:07.997Z,8.82
2022-12-31T21:50:34.859Z,8.15
2022-12-31T21:53:01.708Z,8.07
2022-12-31T21:55:46.982Z,7.53
2022-12-31T21:58:26.001Z,8.55
2022-12-31T22:01:12.959Z,8.60
2022-12-31T22:03:39.845Z,8.27
2022-12-31T22:06:13.100Z,9.90
2022-12-31T22:08:44.925Z,7.80
2022-12-31T22:11:12.405Z,7.28
2022-12-31T22:13:39.321Z,8.90
2022-12-31T22:16:06.752Z,7.35
2022-12-31T22:18:40.691Z,8.55
2022-12-31T22:21:21.283Z,8.77
2022-12-31T22:23:49.652Z,8.32
2022-12-31T22:26:17.890Z,6.28
2022-12-31T22:28:45.205Z,8.82
2022-12-31T22:31:20.772Z,7.35
2022-12-31T22:33:47.635Z,8.23
2022-12-31T22:36:16.420Z,7.43
2022-12-31T22:38:43.694Z,7.68
2022-12-31T22:41:15.163Z,9.32
2022-12-31T22:43:44.022Z,10.63
2022-12-31T22:46:28.898Z,11.18
2022-12-31T22:48:57.929Z,11.68
2022-12-31T22:51:24.424Z,9.73
2022-12-31T22:53:51.077Z,8.85
2022-12-31T22:56:18.995Z,10.25
2022-12-31T22:58:46.191Z,23.02
2022-12-31T23:01:19.111Z,31.65
2022-12-31T23:03:47.325Z,26.42
2022-12-31T23:06:14.149Z,28.05
2022-12-31T23:08:40.774Z,26.70
2022-12-31T23:11:09.677Z,33.88
2022-12-31T23:13:57.765Z,36.30
2022-12-31T23:16:45.413Z,38.85
2022-12-31T23:19:30.632Z,41.78
2022-12-31T23:22:15.678Z,40.13
2022-12-31T23:24:42.309Z,37.30
2022-12-31T23:27:09.823Z,33.58
2022-12-31T23:29:46.248Z,31.73
2022-12-31T23:32:15.870Z,32.40
2022-12-31T23:34:43.702Z,30.63
2022-12-31T23:37:10.779Z,29.77
2022-12-31T23:39:37.356Z,25.05
2022-12-31T23:42:04.070Z,22.52
2022-12-31T23:44:30.581Z,23.77
2022-12-31T23:46:57.210Z,23.35
2022-12-31T23:49:23.833Z,25.67
2022-12-31T23:51:50.345Z,23.33
2022-12-31T23:54:17.866Z,20.45
2022-12-31T23:56:44.620Z,21.23
2022-12-31T23:59:11.733Z,21.15
